createdAt,value
2022-12-10T00:00:19.853Z,100414.25
2022-12-10T00:01:24.378Z,100408.00
2022-12-10T00:02:26.521Z,100409.78
2022-12-10T00:03:29.682Z,100413.25
2022-12-10T00:04:32.828Z,100414.25
2022-12-10T00:05:37.095Z,100413.25
2022-12-10T00:06:40.842Z,100416.03
2022-12-10T00:07:43.012Z,100413.25
2022-12-10T00:08:46.554Z,100408.97
2022-12-10T00:09:49.042Z,100415.19
2022-12-10T00:10:52.257Z,100406.47
2022-12-10T00:11:55.486Z,100416.97
2022-12-10T00:12:57.669Z,100417.97
2022-12-10T00:14:01.491Z,100419.63
2022-12-10T00:15:03.998Z,100425.84
2022-12-10T00:16:09.643Z,100423.22
2022-12-10T00:17:13.188Z,100417.97
2022-12-10T00:18:16.685Z,100422.38
2022-12-10T00:19:18.784Z,100417.13
2022-12-10T00:20:22.056Z,100426.84
2022-12-10T00:21:28.560Z,100421.59
2022-12-10T00:22:31.791Z,100420.75
2022-12-10T00:23:34.580Z,100422.38
2022-12-10T00:24:37.815Z,100420.75
2022-12-10T00:25:40.040Z,100419.91
2022-12-10T00:26:43.717Z,100420.75
2022-12-10T00:27:46.468Z,100418.13
2022-12-10T00:28:54.333Z,100426.84
2022-12-10T00:29:56.528Z,100429.47
2022-12-10T00:31:05.072Z,100420.75
2022-12-10T00:32:08.418Z,100427.00
2022-12-10T00:33:10.800Z,100453.28
2022-12-10T00:34:14.949Z,100422.53
2022-12-10T00:35:17.234Z,100423.38
2022-12-10T00:36:22.902Z,100416.31
2022-12-10T00:37:28.758Z,100419.75
2022-12-10T00:38:32.043Z,100423.22
2022-12-10T00:39:34.168Z,100422.38
2022-12-10T00:40:37.381Z,100425.31
2022-12-10T00:41:39.471Z,100426.00
2022-12-10T00:42:42.486Z,100427.00
2022-12-10T00:43:45.140Z,100428.78
2022-12-10T00:44:48.262Z,100422.69
2022-12-10T00:45:50.507Z,100427.13
2022-12-10T00:46:53.610Z,100423.69
2022-12-10T00:47:55.762Z,100421.84
2022-12-10T00:49:00.310Z,100427.25
2022-12-10T00:50:02.495Z,100422.00
2022-12-10T00:51:07.854Z,100426.47
2022-12-10T00:52:10.866Z,100424.63
2022-12-10T00:53:15.509Z,100427.41
2022-12-10T00:54:18.580Z,100428.25
2022-12-10T00:55:20.641Z,100434.34
2022-12-10T00:56:25.869Z,100436.97
2022-12-10T00:57:27.896Z,100429.75
2022-12-10T00:58:32.710Z,100426.31
2022-12-10T00:59:36.029Z,100432.25
2022-12-10T01:00:38.135Z,100429.75
2022-12-10T01:01:43.488Z,100430.44
2022-12-10T01:02:45.594Z,100432.09
2022-12-10T01:03:50.993Z,100434.75
2022-12-10T01:04:54.108Z,100431.94
2022-12-10T01:05:57.216Z,100432.09
2022-12-10T01:07:01.091Z,100439.00
2022-12-10T01:08:04.988Z,100428.50
2022-12-10T01:09:12.263Z,100437.38
2022-12-10T01:10:14.378Z,100432.91
2022-12-10T01:11:20.536Z,100433.91
2022-12-10T01:12:22.604Z,100439.31
2022-12-10T01:13:25.646Z,100443.72
2022-12-10T01:14:30.378Z,100443.72
2022-12-10T01:15:33.523Z,100437.63
2022-12-10T01:16:36.183Z,100437.78
2022-12-10T01:17:39.361Z,100442.88
2022-12-10T01:18:42.240Z,100448.03
2022-12-10T01:19:45.381Z,100457.03
2022-12-10T01:20:47.473Z,100448.16
2022-12-10T01:21:52.489Z,100446.50
2022-12-10T01:22:54.622Z,100441.41
2022-12-10T01:23:59.236Z,100432.97
2022-12-10T01:25:03.763Z,100448.59
2022-12-10T01:26:09.235Z,100444.31
2022-12-10T01:27:11.419Z,100450.53
2022-12-10T01:28:14.778Z,100445.44
2022-12-10T01:29:17.647Z,100443.63
2022-12-10T01:30:20.708Z,100447.25
2022-12-10T01:31:25.972Z,100453.47
2022-12-10T01:32:29.057Z,100448.22
2022-12-10T01:33:31.452Z,100451.00
2022-12-10T01:34:35.686Z,100445.72
2022-12-10T01:35:37.937Z,100446.88
2022-12-10T01:36:43.420Z,100449.59
2022-12-10T01:37:46.867Z,100448.81
2022-12-10T01:38:50.873Z,100447.97
2022-12-10T01:39:53.079Z,100448.81
2022-12-10T01:40:57.571Z,100451.44
2022-12-10T01:42:02.460Z,100459.31
2022-12-10T01:43:05.317Z,100450.44
2022-12-10T01:44:41.700Z,100450.44
2022-12-10T01:45:44.866Z,100452.94
2022-12-10T01:46:48.546Z,100453.75
2022-12-10T01:47:51.651Z,100456.41
2022-12-10T01:48:54.195Z,100460.66
2022-12-10T01:49:58.992Z,100461.50
2022-12-10T01:51:01.208Z,100462.34
2022-12-10T01:52:06.891Z,100457.09
2022-12-10T01:53:09.786Z,100459.56
2022-12-10T01:54:15.147Z,100465.78
2022-12-10T01:55:41.245Z,100463.97
2022-12-10T01:56:47.950Z,100464.97
2022-12-10T01:57:50.079Z,100457.22
2022-12-10T01:58:56.540Z,100467.75
2022-12-10T02:00:02.121Z,100464.28
2022-12-10T02:01:12.192Z,100467.75
2022-12-10T02:02:21.920Z,100468.56
2022-12-10T02:03:34.544Z,100473.81
2022-12-10T02:04:47.178Z,100466.75
2022-12-10T02:06:00.227Z,100468.69
2022-12-10T02:07:07.431Z,100471.47
2022-12-10T02:08:20.436Z,100469.84
2022-12-10T02:09:28.988Z,100469.97
2022-12-10T02:10:44.630Z,100464.88
2022-12-10T02:12:00.496Z,100461.56
2022-12-10T02:13:08.880Z,100464.19
2022-12-10T02:14:17.232Z,100473.72
2022-12-10T02:15:24.549Z,100468.47
2022-12-10T02:16:41.748Z,100471.91
2022-12-10T02:17:51.179Z,100470.94
2022-12-10T02:19:01.905Z,100469.16
2022-12-10T02:20:09.791Z,100466.50
2022-12-10T02:21:17.969Z,100468.16
2022-12-10T02:22:23.244Z,100472.88
2022-12-10T02:23:29.235Z,100459.31
2022-12-10T02:24:37.099Z,100454.06
2022-12-10T02:25:48.802Z,100463.75
2022-12-10T02:26:57.966Z,100469.69
2022-12-10T02:28:16.239Z,100469.84
2022-12-10T02:29:25.675Z,100473.41
2022-12-10T02:30:32.036Z,100472.47
2022-12-10T02:31:36.055Z,100473.41
2022-12-10T02:32:42.684Z,100470.78
2022-12-10T02:33:50.808Z,100478.69
2022-12-10T02:34:57.664Z,100471.78
2022-12-10T02:36:01.078Z,100478.13
2022-12-10T02:37:08.601Z,100474.84
2022-12-10T02:38:17.823Z,100472.38
2022-12-10T02:39:27.339Z,100473.47
2022-12-10T02:40:36.128Z,100479.56
2022-12-10T02:41:44.672Z,100474.59
2022-12-10T02:42:49.520Z,100473.63
2022-12-10T02:43:56.079Z,100501.38
2022-12-10T02:45:02.526Z,100477.88
2022-12-10T02:46:08.143Z,100472.63
2022-12-10T02:47:13.644Z,100477.88
2022-12-10T02:48:21.543Z,100479.72
2022-12-10T02:49:26.466Z,100477.06
2022-12-10T02:50:29.739Z,100472.63
2022-12-10T02:51:31.788Z,100465.72
2022-12-10T02:52:35.286Z,100484.56
2022-12-10T02:53:42.744Z,100474.59
2022-12-10T02:54:47.624Z,100473.63
2022-12-10T02:56:03.908Z,100472.63
2022-12-10T02:57:24.701Z,100484.81
2022-12-10T02:58:36.308Z,100475.41
2022-12-10T02:59:49.135Z,100479.41
2022-12-10T03:01:01.126Z,100480.09
2022-12-10T03:02:10.979Z,100480.09
2022-12-10T03:03:34.161Z,100481.75
2022-12-10T03:04:46.047Z,100483.38
2022-12-10T03:05:57.761Z,100479.94
2022-12-10T03:07:03.701Z,100481.75
2022-12-10T03:08:14.234Z,100477.31
2022-12-10T03:09:22.040Z,100480.91
2022-12-10T03:10:29.392Z,100484.38
2022-12-10T03:11:31.930Z,100483.38
2022-12-10T03:12:39.812Z,100480.75
2022-12-10T03:13:57.798Z,100482.44
2022-12-10T03:15:03.502Z,100484.06
2022-12-10T03:16:08.909Z,100483.13
2022-12-10T03:17:11.327Z,100488.25
2022-12-10T03:18:17.811Z,100483.78
2022-12-10T03:19:25.169Z,100485.59
2022-12-10T03:20:29.267Z,100482.97
2022-12-10T03:21:34.006Z,100480.34
2022-12-10T03:22:47.207Z,100492.50
2022-12-10T03:23:51.010Z,100486.41
2022-12-10T03:24:55.260Z,100486.41
2022-12-10T03:25:57.444Z,100490.88
2022-12-10T03:27:00.615Z,100503.31
2022-12-10T03:28:02.811Z,100492.81
2022-12-10T03:29:10.165Z,100478.69
2022-12-10T03:30:12.777Z,100486.56
2022-12-10T03:31:19.043Z,100487.41
2022-12-10T03:32:23.268Z,100495.28
2022-12-10T03:33:26.521Z,100490.88
2022-12-10T03:34:29.432Z,100490.88
2022-12-10T03:35:34.032Z,100489.88
2022-12-10T03:36:37.798Z,100492.50
2022-12-10T03:37:41.493Z,100493.50
2022-12-10T03:38:44.524Z,100492.38
2022-12-10T03:39:48.092Z,100495.00
2022-12-10T03:40:50.223Z,100487.25
2022-12-10T03:41:53.386Z,100493.34
2022-12-10T03:42:55.459Z,100499.03
2022-12-10T03:44:00.788Z,100495.00
2022-12-10T03:45:03.001Z,100493.19
2022-12-10T03:46:06.881Z,100491.56
2022-12-10T03:47:15.426Z,100492.22
2022-12-10T03:48:18.530Z,100492.22
2022-12-10T03:49:20.559Z,100493.88
2022-12-10T03:50:23.746Z,100493.88
2022-12-10T03:51:25.933Z,100486.00
2022-12-10T03:52:29.091Z,100493.88
2022-12-10T03:53:31.517Z,100480.75
2022-12-10T03:54:34.652Z,100491.13
2022-12-10T03:55:36.679Z,100492.06
2022-12-10T03:56:40.138Z,100485.31
2022-12-10T03:57:43.009Z,100506.19
2022-12-10T03:58:46.369Z,100505.34
2022-12-10T03:59:48.964Z,100492.50
2022-12-10T04:00:52.557Z,100487.78
2022-12-10T04:01:54.764Z,100488.63
2022-12-10T04:02:59.595Z,100486.00
2022-12-10T04:04:04.138Z,100490.28
2022-12-10T04:05:08.696Z,100480.50
2022-12-10T04:06:15.628Z,100486.81
2022-12-10T04:07:18.756Z,100488.63
2022-12-10T04:08:20.987Z,100495.53
2022-12-10T04:09:24.141Z,100491.56
2022-12-10T04:10:26.254Z,100492.22
2022-12-10T04:11:29.400Z,100493.88
2022-12-10T04:12:32.572Z,100485.31
2022-12-10T04:13:54.485Z,100491.56
2022-12-10T04:15:15.145Z,100485.59
2022-12-10T04:16:29.392Z,100486.72
2022-12-10T04:17:34.410Z,100481.44
2022-12-10T04:18:37.969Z,100477.03
2022-12-10T04:19:41.233Z,100483.94
2022-12-10T04:21:01.906Z,100489.03
2022-12-10T04:22:22.459Z,100475.91
2022-12-10T04:23:43.224Z,100480.19
2022-12-10T04:25:03.674Z,100485.84
2022-12-10T04:26:28.670Z,100475.19
2022-12-10T04:27:34.823Z,100480.31
2022-12-10T04:28:36.964Z,100480.31
2022-12-10T04:29:40.634Z,100474.19
2022-12-10T04:30:42.783Z,100483.91
2022-12-10T04:31:45.928Z,100483.22
2022-12-10T04:32:48.054Z,100478.13
2022-12-10T04:33:52.546Z,100472.16
2022-12-10T04:34:54.820Z,100478.41
2022-12-10T04:35:58.039Z,100476.72
2022-12-10T04:37:01.833Z,100476.03
2022-12-10T04:38:04.879Z,100471.78
2022-12-10T04:39:06.914Z,100471.91
2022-12-10T04:40:11.885Z,100477.31
2022-12-10T04:41:16.385Z,100475.94
2022-12-10T04:42:20.272Z,100475.94
2022-12-10T04:43:22.304Z,100472.63
2022-12-10T04:44:25.449Z,100480.50
2022-12-10T04:45:28.338Z,100494.63
2022-12-10T04:46:31.609Z,100487.75
2022-12-10T04:47:33.722Z,100481.78
2022-12-10T04:48:36.798Z,100479.44
2022-12-10T04:49:40.693Z,100481.25
2022-12-10T04:50:43.804Z,100485.66
2022-12-10T04:51:46.446Z,100482.09
2022-12-10T04:52:49.500Z,100480.13
2022-12-10T04:53:51.618Z,100463.69
2022-12-10T04:54:54.724Z,100484.28
2022-12-10T04:55:56.914Z,100479.72
2022-12-10T04:57:00.152Z,100489.22
2022-12-10T04:58:03.033Z,100486.16
2022-12-10T04:59:06.619Z,100496.53
2022-12-10T05:00:10.204Z,100489.34
2022-12-10T05:01:15.066Z,100486.72
2022-12-10T05:02:17.222Z,100492.81
2022-12-10T05:03:20.437Z,100491.00
2022-12-10T05:04:22.682Z,100487.41
2022-12-10T05:05:27.864Z,100486.41
2022-12-10T05:06:30.601Z,100483.94
2022-12-10T05:07:35.009Z,100487.94
2022-12-10T05:08:38.154Z,100488.63
2022-12-10T05:09:41.301Z,100491.13
2022-12-10T05:10:43.374Z,100485.00
2022-12-10T05:11:46.567Z,100492.75
2022-12-10T05:12:48.643Z,100487.66
2022-12-10T05:13:52.024Z,100479.06
2022-12-10T05:14:54.079Z,100484.47
2022-12-10T05:15:57.213Z,100482.97
2022-12-10T05:16:59.348Z,100486.72
2022-12-10T05:18:02.429Z,100486.00
2022-12-10T05:19:04.546Z,100489.78
2022-12-10T05:20:09.375Z,100489.22
2022-12-10T05:21:15.758Z,100488.41
2022-12-10T05:22:36.419Z,100495.47
2022-12-10T05:23:40.583Z,100488.69
2022-12-10T05:24:43.633Z,100481.63
2022-12-10T05:25:53.945Z,100488.69
2022-12-10T05:26:59.110Z,100478.19
2022-12-10T05:28:01.224Z,100478.88
2022-12-10T05:29:04.376Z,100484.97
2022-12-10T05:30:08.236Z,100475.25
2022-12-10T05:31:14.379Z,100491.72
2022-12-10T05:32:16.454Z,100489.78
2022-12-10T05:33:19.630Z,100493.38
2022-12-10T05:34:21.821Z,100486.59
2022-12-10T05:35:24.869Z,100480.09
2022-12-10T05:36:30.101Z,100491.41
2022-12-10T05:37:33.310Z,100489.78
2022-12-10T05:38:35.782Z,100497.38
2022-12-10T05:39:38.836Z,100487.69
2022-12-10T05:40:41.046Z,100484.91
2022-12-10T05:41:44.981Z,100490.88
2022-12-10T05:42:47.576Z,100488.09
2022-12-10T05:43:51.211Z,100488.78
2022-12-10T05:44:53.314Z,100489.44
2022-12-10T05:45:56.405Z,100482.25
2022-12-10T05:46:58.572Z,100499.53
2022-12-10T05:48:01.944Z,100494.13
2022-12-10T05:49:06.293Z,100494.97
2022-12-10T05:50:10.346Z,100491.34
2022-12-10T05:51:14.774Z,100482.47
2022-12-10T05:52:19.276Z,100491.34
2022-12-10T05:53:21.410Z,100488.88
2022-12-10T05:54:24.462Z,100490.66
2022-12-10T05:55:27.607Z,100488.34
2022-12-10T05:56:30.748Z,100492.06
2022-12-10T05:57:33.839Z,100494.19
2022-12-10T05:58:37.121Z,100490.88
2022-12-10T05:59:40.368Z,100493.78
2022-12-10T06:00:42.874Z,100508.88
2022-12-10T06:01:45.919Z,100496.69
2022-12-10T06:02:47.993Z,100495.19
2022-12-10T06:03:53.209Z,100490.06
2022-12-10T06:04:56.366Z,100493.66
2022-12-10T06:05:58.460Z,100493.00
2022-12-10T06:07:02.680Z,100492.31
2022-12-10T06:08:08.482Z,100494.09
2022-12-10T06:09:15.078Z,100494.25
2022-12-10T06:10:17.343Z,100495.22
2022-12-10T06:11:20.783Z,100508.38
2022-12-10T06:12:22.958Z,100501.72
2022-12-10T06:13:26.089Z,100495.91
2022-12-10T06:14:29.083Z,100502.97
2022-12-10T06:15:31.107Z,100497.31
2022-12-10T06:16:34.084Z,100513.47
2022-12-10T06:17:37.305Z,100506.41
2022-12-10T06:18:40.429Z,100511.66
2022-12-10T06:19:43.460Z,100510.69
2022-12-10T06:20:47.464Z,100508.06
2022-12-10T06:21:50.668Z,100508.06
2022-12-10T06:22:53.049Z,100508.88
2022-12-10T06:23:58.910Z,100509.88
2022-12-10T06:25:00.896Z,100507.22
2022-12-10T06:26:06.129Z,100512.63
2022-12-10T06:27:09.136Z,100509.31
2022-12-10T06:28:11.229Z,100513.88
2022-12-10T06:29:14.248Z,100518.31
2022-12-10T06:30:16.294Z,100514.88
2022-12-10T06:31:19.880Z,100505.88
2022-12-10T06:32:21.918Z,100513.19
2022-12-10T06:33:24.954Z,100507.94
2022-12-10T06:34:27.033Z,100508.06
2022-12-10T06:35:30.250Z,100504.50
2022-12-10T06:36:32.267Z,100507.28
2022-12-10T06:37:35.289Z,100512.53
2022-12-10T06:38:37.934Z,100511.69
2022-12-10T06:39:42.327Z,100507.28
2022-12-10T06:40:44.500Z,100507.41
2022-12-10T06:41:47.563Z,100510.84
2022-12-10T06:42:52.051Z,100512.66
2022-12-10T06:43:59.131Z,100509.22
2022-12-10T06:45:01.350Z,100513.47
2022-12-10T06:46:07.385Z,100514.47
2022-12-10T06:47:09.367Z,100511.13
2022-12-10T06:48:12.438Z,100519.72
2022-12-10T06:49:14.524Z,100510.31
2022-12-10T06:50:17.678Z,100522.63
2022-12-10T06:51:19.828Z,100527.88
2022-12-10T06:52:22.913Z,100523.72
2022-12-10T06:53:25.334Z,100528.16
2022-12-10T06:54:28.445Z,100528.16
2022-12-10T06:55:31.860Z,100522.09
2022-12-10T06:56:34.829Z,100531.75
2022-12-10T06:57:36.927Z,100521.13
2022-12-10T06:58:41.510Z,100528.59
2022-12-10T06:59:43.506Z,100526.09
2022-12-10T07:00:46.613Z,100526.09
2022-12-10T07:01:48.918Z,100530.50
2022-12-10T07:02:52.077Z,100529.69
2022-12-10T07:03:56.359Z,100540.22
2022-12-10T07:04:59.345Z,100528.88
2022-12-10T07:06:02.231Z,100538.81
2022-12-10T07:07:09.358Z,100533.44
2022-12-10T07:08:11.801Z,100536.19
2022-12-10T07:09:14.867Z,100537.19
2022-12-10T07:10:16.957Z,100535.66
2022-12-10T07:11:23.653Z,100536.78
2022-12-10T07:12:25.683Z,100543.97
2022-12-10T07:13:30.914Z,100538.00
2022-12-10T07:14:34.213Z,100546.03
2022-12-10T07:15:36.164Z,100544.25
2022-12-10T07:16:39.683Z,100544.38
2022-12-10T07:17:41.721Z,100550.44
2022-12-10T07:18:51.530Z,100548.66
2022-12-10T07:19:54.830Z,100557.38
2022-12-10T07:20:57.802Z,100553.75
2022-12-10T07:21:59.767Z,100551.97
2022-12-10T07:23:02.860Z,100552.78
2022-12-10T07:24:07.222Z,100552.94
2022-12-10T07:25:10.634Z,100547.97
2022-12-10T07:26:12.748Z,100552.66
2022-12-10T07:27:17.071Z,100559.03
2022-12-10T07:28:19.068Z,100559.03
2022-12-10T07:29:23.292Z,100567.88
2022-12-10T07:30:25.875Z,100558.19
2022-12-10T07:31:29.509Z,100559.16
2022-12-10T07:32:31.587Z,100558.31
2022-12-10T07:33:34.783Z,100550.03
2022-12-10T07:34:36.764Z,100570.38
2022-12-10T07:35:44.603Z,100565.09
2022-12-10T07:36:51.888Z,100563.28
2022-12-10T07:37:53.857Z,100568.69
2022-12-10T07:38:57.229Z,100563.44
2022-12-10T07:39:59.190Z,100565.25
2022-12-10T07:41:05.539Z,100570.75
2022-12-10T07:42:07.532Z,100568.69
2022-12-10T07:43:15.633Z,100569.53
2022-12-10T07:44:19.607Z,100567.59
2022-12-10T07:45:22.607Z,100571.88
2022-12-10T07:46:26.336Z,100576.16
2022-12-10T07:47:29.392Z,100575.03
2022-12-10T07:48:31.456Z,100581.84
2022-12-10T07:49:34.985Z,100578.22
2022-12-10T07:50:37.193Z,100579.06
2022-12-10T07:51:40.783Z,100585.13
2022-12-10T07:52:43.890Z,100579.22
2022-12-10T07:53:46.198Z,100591.50
2022-12-10T07:54:49.254Z,100586.25
2022-12-10T07:55:51.473Z,100588.75
2022-12-10T07:56:54.477Z,100584.47
2022-12-10T07:57:56.492Z,100584.47
2022-12-10T07:59:00.941Z,100589.72
2022-12-10T08:00:03.696Z,100584.47
2022-12-10T08:01:17.038Z,100584.47
2022-12-10T08:02:19.226Z,100582.50
2022-12-10T08:03:22.373Z,100584.19
2022-12-10T08:04:25.570Z,100587.66
2022-12-10T08:05:28.525Z,100587.50
2022-12-10T08:06:30.587Z,100587.50
2022-12-10T08:07:34.961Z,100592.63
2022-12-10T08:08:38.259Z,100591.06
2022-12-10T08:09:41.346Z,100589.28
2022-12-10T08:10:43.414Z,100600.63
2022-12-10T08:11:46.490Z,100589.44
2022-12-10T08:12:49.532Z,100588.59
2022-12-10T08:13:56.607Z,100592.19
2022-12-10T08:15:03.357Z,100592.34
2022-12-10T08:16:07.703Z,100596.75
2022-12-10T08:17:10.828Z,100595.22
2022-12-10T08:18:12.779Z,100601.47
2022-12-10T08:19:21.403Z,100609.34
2022-12-10T08:20:25.571Z,100600.75
2022-12-10T08:21:30.456Z,100600.75
2022-12-10T08:22:34.026Z,100603.38
2022-12-10T08:23:37.943Z,100605.22
2022-12-10T08:24:41.008Z,100603.25
2022-12-10T08:25:43.100Z,100603.09
2022-12-10T08:26:46.232Z,100611.97
2022-12-10T08:27:48.272Z,100605.88
2022-12-10T08:28:52.192Z,100599.94
2022-12-10T08:29:54.181Z,100613.19
2022-12-10T08:30:58.559Z,100604.66
2022-12-10T08:32:01.637Z,100607.41
2022-12-10T08:33:03.881Z,100610.16
2022-12-10T08:34:07.366Z,100610.28
2022-12-10T08:35:09.738Z,100612.91
2022-12-10T08:36:15.674Z,100609.63
2022-12-10T08:37:18.800Z,100623.00
2022-12-10T08:38:20.866Z,100616.66
2022-12-10T08:39:23.978Z,100611.56
2022-12-10T08:40:25.960Z,100613.34
2022-12-10T08:41:29.084Z,100612.66
2022-12-10T08:42:31.070Z,100611.94
2022-12-10T08:43:34.073Z,100605.88
2022-12-10T08:44:37.304Z,100611.28
2022-12-10T08:45:39.283Z,100616.53
2022-12-10T08:46:43.854Z,100622.88
2022-12-10T08:47:45.865Z,100610.72
2022-12-10T08:48:48.934Z,100622.03
2022-12-10T08:49:51.932Z,100616.09
2022-12-10T08:50:55.670Z,100622.03
2022-12-10T08:51:58.689Z,100612.50
2022-12-10T08:53:01.210Z,100605.31
2022-12-10T08:54:04.686Z,100621.50
2022-12-10T08:55:07.534Z,100619.81
2022-12-10T08:56:10.582Z,100624.22
2022-12-10T08:57:12.899Z,100616.63
2022-12-10T08:58:15.904Z,100627.28
2022-12-10T08:59:19.225Z,100623.94
2022-12-10T09:00:21.475Z,100625.78
2022-12-10T09:01:24.696Z,100628.63
2022-12-10T09:02:28.207Z,100622.72
2022-12-10T09:03:31.244Z,100624.50
2022-12-10T09:04:33.200Z,100627.28
2022-12-10T09:05:36.860Z,100620.34
2022-12-10T09:06:38.900Z,100626.44
2022-12-10T09:07:41.962Z,100622.00
2022-12-10T09:08:44.048Z,100628.09
2022-12-10T09:09:47.056Z,100632.53
2022-12-10T09:10:50.096Z,100623.66
2022-12-10T09:11:53.140Z,100630.59
2022-12-10T09:12:59.907Z,100630.59
2022-12-10T09:14:06.134Z,100636.78
2022-12-10T09:15:10.820Z,100637.75
2022-12-10T09:16:14.533Z,100640.38
2022-12-10T09:17:17.696Z,100648.41
2022-12-10T09:18:21.067Z,100644.94
2022-12-10T09:19:24.179Z,100645.78
2022-12-10T09:20:26.263Z,100645.66
2022-12-10T09:21:30.706Z,100652.53
2022-12-10T09:22:33.190Z,100647.00
2022-12-10T09:23:36.705Z,100647.84
2022-12-10T09:24:39.711Z,100659.91
2022-12-10T09:25:41.765Z,100654.66
2022-12-10T09:26:44.717Z,100658.91
2022-12-10T09:27:48.078Z,100652.97
2022-12-10T09:28:51.396Z,100655.59
2022-12-10T09:29:53.477Z,100654.66
2022-12-10T09:31:00.178Z,100651.84
2022-12-10T09:32:03.590Z,100659.91
2022-12-10T09:33:06.762Z,100667.78
2022-12-10T09:34:11.200Z,100660.69
2022-12-10T09:35:13.182Z,100662.38
2022-12-10T09:36:16.363Z,100653.25
2022-12-10T09:37:18.382Z,100663.19
2022-12-10T09:38:21.733Z,100670.25
2022-12-10T09:39:23.805Z,100662.25
2022-12-10T09:40:36.430Z,100665.72
2022-12-10T09:42:08.040Z,100673.59
2022-12-10T09:43:19.751Z,100668.34
2022-12-10T09:44:34.058Z,100669.28
2022-12-10T09:45:45.970Z,100669.41
2022-12-10T09:46:53.055Z,100662.66
2022-12-10T09:48:02.191Z,100660.41
2022-12-10T09:49:21.374Z,100663.75
2022-12-10T09:50:31.575Z,100668.28
2022-12-10T09:51:38.095Z,100666.66
2022-12-10T09:52:44.436Z,100671.91
2022-12-10T09:53:49.396Z,100673.69
2022-12-10T09:54:56.905Z,100670.91
2022-12-10T09:55:59.690Z,100662.34
2022-12-10T09:57:05.665Z,100662.34
2022-12-10T09:58:16.013Z,100657.94
2022-12-10T09:59:22.664Z,100658.34
2022-12-10T10:00:32.448Z,100657.38
2022-12-10T10:01:36.073Z,100661.66
2022-12-10T10:02:39.865Z,100661.66
2022-12-10T10:03:46.961Z,100659.03
2022-12-10T10:04:55.043Z,100662.47
2022-12-10T10:05:58.515Z,100665.94
2022-12-10T10:07:01.275Z,100660.53
2022-12-10T10:08:07.495Z,100654.34
2022-12-10T10:09:13.790Z,100660.41
2022-12-10T10:10:24.718Z,100656.72
2022-12-10T10:11:31.391Z,100659.19
2022-12-10T10:12:34.930Z,100652.81
2022-12-10T10:13:40.687Z,100650.06
2022-12-10T10:14:44.359Z,100651.59
2022-12-10T10:15:47.682Z,100648.97
2022-12-10T10:16:54.479Z,100651.31
2022-12-10T10:18:02.662Z,100648.56
2022-12-10T10:19:08.277Z,100644.84
2022-12-10T10:20:12.237Z,100649.13
2022-12-10T10:21:22.696Z,100654.25
2022-12-10T10:22:27.467Z,100649.00
2022-12-10T10:23:30.606Z,100648.84
2022-12-10T10:24:36.679Z,100653.28
2022-12-10T10:25:40.675Z,100657.69
2022-12-10T10:26:44.436Z,100657.69
2022-12-10T10:27:46.629Z,100649.00
2022-12-10T10:28:54.809Z,100653.53
2022-12-10T10:30:00.944Z,100645.66
2022-12-10T10:31:04.100Z,100649.97
2022-12-10T10:32:19.906Z,100644.00
2022-12-10T10:33:22.040Z,100651.63
2022-12-10T10:34:25.545Z,100652.31
2022-12-10T10:35:32.086Z,100662.81
2022-12-10T10:36:37.473Z,100648.84
2022-12-10T10:37:42.238Z,100660.06
2022-12-10T10:38:50.086Z,100658.41
2022-12-10T10:39:52.700Z,100657.44
2022-12-10T10:40:58.627Z,100659.34
2022-12-10T10:42:09.604Z,100654.09
2022-12-10T10:43:20.432Z,100654.09
2022-12-10T10:44:24.341Z,100654.94
2022-12-10T10:45:37.546Z,100659.34
2022-12-10T10:46:41.277Z,100661.84
2022-12-10T10:47:44.446Z,100662.53
2022-12-10T10:48:47.571Z,100658.13
2022-12-10T10:49:49.563Z,100656.91
2022-12-10T10:50:56.098Z,100661.03
2022-12-10T10:52:00.799Z,100657.44
2022-12-10T10:53:03.793Z,100666.00
2022-12-10T10:54:08.511Z,100659.09
2022-12-10T10:55:33.149Z,100645.97
2022-12-10T10:56:43.112Z,100660.75
2022-12-10T10:57:45.187Z,100662.44
2022-12-10T10:58:54.527Z,100664.09
2022-12-10T11:00:09.641Z,100660.63
2022-12-10T11:01:13.560Z,100660.75
2022-12-10T11:02:23.026Z,100657.44
2022-12-10T11:03:26.163Z,100662.00
2022-12-10T11:04:33.491Z,100666.56
2022-12-10T11:05:37.356Z,100656.91
2022-12-10T11:06:41.286Z,100645.56
2022-12-10T11:07:44.727Z,100657.72
2022-12-10T11:08:48.144Z,100663.81
2022-12-10T11:09:51.791Z,100655.09
2022-12-10T11:11:02.780Z,100657.84
2022-12-10T11:12:08.409Z,100658.69
2022-12-10T11:13:23.571Z,100663.94
2022-12-10T11:14:29.093Z,100661.31
2022-12-10T11:15:34.913Z,100653.44
2022-12-10T11:16:37.978Z,100656.91
2022-12-10T11:17:47.874Z,100647.19
2022-12-10T11:18:58.697Z,100649.56
2022-12-10T11:20:16.341Z,100651.22
2022-12-10T11:21:22.765Z,100649.31
2022-12-10T11:22:28.549Z,100655.22
2022-12-10T11:23:33.067Z,100649.72
2022-12-10T11:24:35.071Z,100652.06
2022-12-10T11:25:49.967Z,100658.97
2022-12-10T11:27:04.147Z,100651.09
2022-12-10T11:28:24.107Z,100647.75
2022-12-10T11:29:43.170Z,100650.38
2022-12-10T11:30:55.126Z,100648.03
2022-12-10T11:32:14.687Z,100649.88
2022-12-10T11:33:24.918Z,100645.56
2022-12-10T11:34:43.754Z,100639.47
2022-12-10T11:35:59.221Z,100633.41
2022-12-10T11:37:09.505Z,100636.16
2022-12-10T11:38:23.678Z,100636.16
2022-12-10T11:39:52.258Z,100638.22
2022-12-10T11:41:04.103Z,100643.63
2022-12-10T11:42:15.058Z,100629.09
2022-12-10T11:43:33.524Z,100639.75
2022-12-10T11:44:43.391Z,100643.47
2022-12-10T11:46:00.425Z,100642.78
2022-12-10T11:47:26.105Z,100644.84
2022-12-10T11:48:42.557Z,100646.78
2022-12-10T11:49:55.561Z,100647.88
2022-12-10T11:51:03.546Z,100652.44
2022-12-10T11:52:18.709Z,100643.03
2022-12-10T11:53:52.413Z,100646.78
2022-12-10T11:55:07.553Z,100639.84
2022-12-10T11:56:24.111Z,100640.97
2022-12-10T11:57:39.819Z,100641.09
2022-12-10T11:58:57.466Z,100642.03
2022-12-10T12:00:07.557Z,100635.16
2022-12-10T12:01:18.858Z,100650.91
2022-12-10T12:02:49.066Z,100636.94
2022-12-10T12:04:15.965Z,100646.59
2022-12-10T12:05:33.048Z,100637.91
2022-12-10T12:06:59.766Z,100638.84
2022-12-10T12:08:11.311Z,100640.66
2022-12-10T12:09:30.855Z,100644.94
2022-12-10T12:10:55.874Z,100642.31
2022-12-10T12:12:10.976Z,100645.91
2022-12-10T12:13:17.961Z,100644.09
2022-12-10T12:14:26.723Z,100637.75
2022-12-10T12:15:33.933Z,100629.19
2022-12-10T12:16:41.551Z,100639.69
2022-12-10T12:17:49.193Z,100644.72
2022-12-10T12:18:57.796Z,100642.63
2022-12-10T12:20:04.397Z,100637.25
2022-12-10T12:21:12.203Z,100641.09
2022-12-10T12:22:16.791Z,100640.16
2022-12-10T12:23:26.285Z,100640.84
2022-12-10T12:24:37.452Z,100636.41
2022-12-10T12:25:44.146Z,100635.72
2022-12-10T12:26:54.794Z,100635.84
2022-12-10T12:28:02.411Z,100629.66
2022-12-10T12:29:17.366Z,100634.22